createdAt,value
2022-11-02T00:03:05.796Z,99524.97
2022-11-02T00:08:08.929Z,99523.38
2022-11-02T00:13:11.828Z,99533.94
2022-11-02T00:18:16.595Z,99533.16
2022-11-02T00:23:19.987Z,99539.16
2022-11-02T00:28:23.024Z,99534.13
2022-11-02T00:33:27.732Z,99541.03
2022-11-02T00:38:32.090Z,99542.25
2022-11-02T00:43:35.014Z,99544.28
2022-11-02T00:48:39.421Z,99563.84
2022-11-02T00:53:42.349Z,99554.13
2022-11-02T00:58:45.294Z,99555.78
2022-11-02T01:03:50.029Z,99545.69
2022-11-02T01:08:52.947Z,99544.06
2022-11-02T01:13:55.826Z,99546.47
2022-11-02T01:19:00.855Z,99546.66
2022-11-02T01:24:04.431Z,99548.84
2022-11-02T01:29:08.141Z,99545.16
2022-11-02T01:34:13.428Z,99539.88
2022-11-02T01:39:16.694Z,99535.03
2022-11-02T01:44:29.383Z,99524.94
2022-11-02T01:49:37.882Z,99531.34
2022-11-02T01:54:43.464Z,99532.50
2022-11-02T01:59:51.990Z,99535.72
2022-11-02T02:05:03.443Z,99525.16
2022-11-02T02:10:07.535Z,99526.00
2022-11-02T02:15:11.889Z,99520.38
2022-11-02T02:20:27.765Z,99514.97
2022-11-02T02:25:51.624Z,99527.00
2022-11-02T02:30:59.989Z,99521.72
2022-11-02T02:36:08.975Z,99514.66
2022-11-02T02:41:19.005Z,99526.94
2022-11-02T02:46:33.349Z,99519.97
2022-11-02T02:51:40.861Z,99517.16
2022-11-02T02:56:51.906Z,99527.44
2022-11-02T03:01:58.286Z,99530.22
2022-11-02T03:07:03.950Z,99526.81
2022-11-02T03:12:28.341Z,99523.72
2022-11-02T03:17:36.813Z,99530.81
2022-11-02T03:22:47.831Z,99525.56
2022-11-02T03:27:57.822Z,99527.88
2022-11-02T03:33:08.355Z,99536.28
2022-11-02T03:38:16.683Z,99535.44
2022-11-02T03:43:21.758Z,99535.63
2022-11-02T03:48:33.366Z,99545.44
2022-11-02T03:53:43.896Z,99552.13
2022-11-02T03:58:46.981Z,99558.84
2022-11-02T04:03:51.541Z,99542.44
2022-11-02T04:08:55.096Z,99546.00
2022-11-02T04:14:14.892Z,99548.13
2022-11-02T04:19:29.841Z,99532.53
2022-11-02T04:24:56.139Z,99548.41
2022-11-02T04:30:00.271Z,99545.25
2022-11-02T04:35:09.438Z,99545.81
2022-11-02T04:40:13.570Z,99546.31
2022-11-02T04:45:17.123Z,99537.75
2022-11-02T04:50:21.473Z,99532.59
2022-11-02T04:55:25.383Z,99536.84
2022-11-02T05:00:29.364Z,99539.19
2022-11-02T05:05:34.511Z,99540.25
2022-11-02T05:10:37.931Z,99534.03
2022-11-02T05:15:41.774Z,99531.72
2022-11-02T05:20:51.704Z,99539.66
2022-11-02T05:25:58.118Z,99532.31
2022-11-02T05:31:02.881Z,99548.25
2022-11-02T05:36:11.094Z,99546.63
2022-11-02T05:41:16.691Z,99538.50
2022-11-02T05:46:19.928Z,99537.50
2022-11-02T05:51:24.206Z,99545.97
2022-11-02T05:56:27.213Z,99540.41
2022-11-02T06:01:30.178Z,99537.97
2022-11-02T06:06:35.622Z,99539.41
2022-11-02T06:11:38.526Z,99538.69
2022-11-02T06:16:41.428Z,99551.66
2022-11-02T06:21:48.294Z,99561.00
2022-11-02T06:26:52.179Z,99570.09
2022-11-02T06:31:55.288Z,99576.31
2022-11-02T06:36:59.557Z,99575.66
2022-11-02T06:42:02.489Z,99567.78
2022-11-02T06:47:05.590Z,99562.34
2022-11-02T06:52:10.635Z,99556.63
2022-11-02T06:57:13.510Z,99557.84
2022-11-02T07:02:16.659Z,99574.66
2022-11-02T07:07:20.989Z,99587.69
2022-11-02T07:12:24.223Z,99582.19
2022-11-02T07:17:32.019Z,99586.25
2022-11-02T07:22:36.711Z,99589.88
2022-11-02T07:27:40.453Z,99594.03
2022-11-02T07:32:44.458Z,99581.91
2022-11-02T07:37:56.555Z,99573.97
2022-11-02T07:42:59.787Z,99581.41
2022-11-02T07:48:12.195Z,99575.53
2022-11-02T07:53:16.549Z,99561.69
2022-11-02T07:58:19.481Z,99572.47
2022-11-02T08:03:22.447Z,99569.28
2022-11-02T08:08:26.727Z,99572.13
2022-11-02T08:13:32.783Z,99566.44
2022-11-02T08:18:36.016Z,99572.91
2022-11-02T08:23:40.320Z,99582.09
2022-11-02T08:28:43.227Z,99589.13
2022-11-02T08:33:46.367Z,99599.28
2022-11-02T08:38:50.647Z,99594.03
2022-11-02T08:43:53.566Z,99592.53
2022-11-02T08:48:56.498Z,99592.78
2022-11-02T08:54:00.790Z,99605.38
2022-11-02T08:59:03.731Z,99607.38
2022-11-02T09:04:06.690Z,99603.25
2022-11-02T09:09:11.193Z,99626.81
2022-11-02T09:14:14.584Z,99605.53
2022-11-02T09:19:17.493Z,99609.16
2022-11-02T09:24:21.786Z,99622.59
2022-11-02T09:34:32.555Z,99620.03
2022-11-02T09:39:36.810Z,99625.53
2022-11-02T09:44:48.418Z,99631.75
2022-11-02T09:49:52.146Z,99635.84
2022-11-02T09:55:00.029Z,99659.88
2022-11-02T10:00:03.594Z,99661.22
2022-11-02T10:05:37.283Z,99662.09
2022-11-02T10:10:52.738Z,99665.09
2022-11-02T10:15:58.073Z,99651.69
2022-11-02T10:21:06.210Z,99655.38
2022-11-02T10:26:17.213Z,99652.72
2022-11-02T10:31:27.020Z,99648.38
2022-11-02T10:36:45.938Z,99635.88
2022-11-02T10:42:02.749Z,99641.91
2022-11-02T10:47:14.654Z,99634.06
2022-11-02T10:52:19.100Z,99641.13
2022-11-02T10:57:25.637Z,99640.59
2022-11-02T11:02:29.168Z,99642.13
2022-11-02T11:07:32.146Z,99645.69
2022-11-02T11:12:42.307Z,99646.97
2022-11-02T11:23:11.070Z,99645.72
2022-11-02T11:28:25.513Z,99652.91
2022-11-02T11:33:28.519Z,99656.41
2022-11-02T11:38:31.568Z,99659.66
2022-11-02T11:43:39.287Z,99665.75
2022-11-02T11:48:46.011Z,99659.84
2022-11-02T11:54:08.324Z,99663.69
2022-11-02T11:59:22.354Z,99643.16
2022-11-02T12:04:34.541Z,99647.22
2022-11-02T12:09:44.947Z,99635.59
2022-11-02T12:15:05.471Z,99634.59
2022-11-02T12:20:28.120Z,99642.53
2022-11-02T12:25:47.012Z,99637.78
2022-11-02T12:31:02.505Z,99633.16
2022-11-02T12:36:13.672Z,99637.00
2022-11-02T12:41:26.071Z,99630.13
2022-11-02T12:46:44.631Z,99628.97
2022-11-02T12:51:58.674Z,99625.16
2022-11-02T12:57:02.119Z,99627.47
2022-11-02T13:02:12.607Z,99641.03
2022-11-02T13:07:19.891Z,99628.75
2022-11-02T13:12:25.591Z,99634.78
2022-11-02T13:17:44.322Z,99641.25
2022-11-02T13:22:55.295Z,99634.22
2022-11-02T13:28:05.577Z,99648.69
2022-11-02T13:33:18.526Z,99648.41
2022-11-02T13:38:31.904Z,99645.03
2022-11-02T13:44:12.059Z,99651.16
2022-11-02T13:49:19.489Z,99653.13
2022-11-02T13:54:27.435Z,99663.31
2022-11-02T13:59:33.384Z,99657.31
2022-11-02T14:04:41.418Z,99658.00
2022-11-02T14:09:45.811Z,99652.34
2022-11-02T14:15:28.245Z,99653.00
2022-11-02T14:20:37.283Z,99651.34
2022-11-02T14:25:48.698Z,99653.31
2022-11-02T14:30:56.989Z,99639.84
2022-11-02T14:36:03.765Z,99641.88
2022-11-02T14:41:20.594Z,99640.66
2022-11-02T14:46:39.888Z,99639.19
2022-11-02T14:51:46.737Z,99635.16
2022-11-02T14:56:54.207Z,99649.19
2022-11-02T15:02:01.082Z,99656.59
2022-11-02T15:07:07.451Z,99638.25
2022-11-02T15:12:31.047Z,99653.41
2022-11-02T15:17:53.857Z,99653.78
2022-11-02T15:23:05.168Z,99654.66
2022-11-02T15:28:15.065Z,99657.28
2022-11-02T15:33:24.200Z,99653.38
2022-11-02T15:38:35.263Z,99664.78
2022-11-02T15:49:16.028Z,99688.34
2022-11-02T15:54:30.798Z,99701.00
2022-11-02T15:59:59.458Z,99698.47
2022-11-02T16:05:03.653Z,99713.66
2022-11-02T16:10:24.613Z,99711.44
2022-11-02T16:15:28.806Z,99723.75
2022-11-02T16:20:35.440Z,99728.84
2022-11-02T16:25:44.839Z,99721.00
2022-11-02T16:31:01.369Z,99725.63
2022-11-02T16:36:04.994Z,99730.91
2022-11-02T16:41:10.479Z,99740.81
2022-11-02T16:46:16.645Z,99740.81
2022-11-02T16:51:20.482Z,99753.75
2022-11-02T16:56:29.309Z,99756.97
2022-11-02T17:01:38.788Z,99753.06
2022-11-02T17:06:42.969Z,99769.38
2022-11-02T17:11:47.579Z,99778.06
2022-11-02T17:17:02.275Z,99782.66
2022-11-02T17:22:12.333Z,99774.50
2022-11-02T17:27:25.676Z,99767.97
2022-11-02T17:32:29.459Z,99780.34
2022-11-02T17:37:33.539Z,99774.28
2022-11-02T17:42:55.752Z,99764.91
2022-11-02T17:48:00.425Z,99782.00
2022-11-02T17:53:05.117Z,99772.84
2022-11-02T17:58:09.634Z,99775.53
2022-11-02T18:03:16.935Z,99787.88
2022-11-02T18:08:20.392Z,99790.59
2022-11-02T18:13:25.485Z,99786.28
2022-11-02T18:18:28.471Z,99775.09
2022-11-02T18:23:33.060Z,99768.16
2022-11-02T18:28:37.597Z,99772.34
2022-11-02T18:33:40.545Z,99766.19
2022-11-02T18:38:43.506Z,99765.44
2022-11-02T18:43:47.791Z,99764.22
2022-11-02T18:48:50.954Z,99765.03
2022-11-02T18:53:55.394Z,99750.69
2022-11-02T18:58:59.961Z,99761.91
2022-11-02T19:04:03.411Z,99759.47
2022-11-02T19:09:23.050Z,99771.44
2022-11-02T19:14:28.632Z,99763.00
2022-11-02T19:19:32.277Z,99771.69
2022-11-02T19:24:35.186Z,99775.00
2022-11-02T19:29:39.495Z,99779.09
2022-11-02T19:34:43.096Z,99771.59
2022-11-02T19:39:46.003Z,99768.16
2022-11-02T19:44:50.298Z,99768.31
2022-11-02T19:49:53.224Z,99756.63
2022-11-02T19:54:56.136Z,99764.88
2022-11-02T20:00:00.473Z,99762.97
2022-11-02T20:05:03.437Z,99781.06
2022-11-02T20:10:07.014Z,99768.44
2022-11-02T20:15:12.199Z,99777.81
2022-11-02T20:20:15.160Z,99784.28
2022-11-02T20:25:18.315Z,99775.22
2022-11-02T20:30:23.134Z,99790.69
2022-11-02T20:35:26.111Z,99791.84
2022-11-02T20:40:32.203Z,99793.03
2022-11-02T20:45:36.607Z,99805.19
2022-11-02T20:50:39.641Z,99802.06
2022-11-02T20:55:43.346Z,99805.22
2022-11-02T21:00:48.581Z,99798.91
2022-11-02T21:05:51.836Z,99806.31
2022-11-02T21:10:58.671Z,99807.09
2022-11-02T21:16:05.305Z,99808.28
2022-11-02T21:21:09.922Z,99816.22
2022-11-02T21:26:14.814Z,99809.38
2022-11-02T21:31:20.950Z,99804.25
2022-11-02T21:36:23.936Z,99806.03
2022-11-02T21:41:29.084Z,99813.69
2022-11-02T21:46:33.665Z,99818.63
2022-11-02T21:51:38.491Z,99822.22
2022-11-02T21:56:41.612Z,99815.25
2022-11-02T22:01:47.277Z,99813.03
2022-11-02T22:06:51.167Z,99806.59
2022-11-02T22:12:16.166Z,99801.28
2022-11-02T22:17:47.936Z,99799.34
2022-11-02T22:22:43.843Z,99800.53
2022-11-02T22:27:46.838Z,99793.94
2022-11-02T22:32:51.182Z,99787.44
2022-11-02T22:38:11.821Z,99795.97
2022-11-02T22:43:15.134Z,99789.34
2022-11-02T22:48:19.497Z,99790.28
2022-11-02T22:53:23.932Z,99787.66
2022-11-02T22:58:27.985Z,99790.78
2022-11-02T23:03:33.805Z,99791.00
2022-11-02T23:08:38.499Z,99797.16
2022-11-02T23:13:41.604Z,99795.22
2022-11-02T23:19:03.182Z,99802.91
2022-11-02T23:24:24.392Z,99804.38
2022-11-02T23:29:45.103Z,99804.38
2022-11-02T23:35:06.752Z,99806.28
2022-11-02T23:40:11.925Z,99801.84
2022-11-02T23:45:15.029Z,99794.84
2022-11-02T23:50:34.655Z,99779.09
2022-11-02T23:55:54.867Z,99774.03
